createdAt,value
2022-10-19T00:16:54.717Z,1025.03
2022-10-19T00:45:36.119Z,1025.01
2022-10-19T01:14:18.306Z,1025.04
2022-10-19T01:43:00.688Z,1025
2022-10-19T02:11:35.929Z,1025.04
2022-10-19T02:40:19.852Z,1024.69
2022-10-19T03:09:04.178Z,1024.4
2022-10-19T03:37:44.459Z,1024.35
2022-10-19T04:06:23.181Z,1024.26
2022-10-19T04:34:50.418Z,1024.23
2022-10-19T05:03:38.025Z,1024.31
2022-10-19T05:31:53.706Z,1024.12
2022-10-19T06:00:22.869Z,1024.08
2022-10-19T06:28:44.688Z,1024.14
2022-10-19T06:57:14.422Z,1024.37
2022-10-19T07:25:50.436Z,1024.21
2022-10-19T07:54:19.634Z,1024.23
2022-10-19T08:23:00.017Z,1024.23
2022-10-19T08:51:14.518Z,1024.05
2022-10-19T09:19:48.517Z,1023.88
2022-10-19T09:48:17.066Z,1023.73
2022-10-19T10:16:38.071Z,1023.63
2022-10-19T10:45:17.673Z,1023.62
2022-10-19T11:13:56.292Z,1023.3
2022-10-19T11:42:28.720Z,1022.81
2022-10-19T12:11:06.175Z,1022.01
2022-10-19T12:39:40.391Z,1021.6
2022-10-19T13:08:20.617Z,1021.1
2022-10-19T13:37:00.321Z,1020.6
2022-10-19T14:05:32.905Z,1020.42
2022-10-19T14:34:07.629Z,1020.22
2022-10-19T15:02:42.728Z,1019.97
2022-10-19T15:31:21.776Z,1019.96
2022-10-19T15:59:54.911Z,1019.8
2022-10-19T16:28:36.264Z,1019.66
2022-10-19T16:57:26.053Z,1019.69
2022-10-19T17:26:11.356Z,1019.63
2022-10-19T17:55:13.012Z,1019.93
2022-10-19T18:23:19.221Z,1019.98
2022-10-19T18:52:06.201Z,1019.64
2022-10-19T19:20:41.698Z,1019.6
2022-10-19T19:49:18.693Z,1019.69
2022-10-19T20:18:16.776Z,1019.73
2022-10-19T20:47:03.991Z,1019.59
2022-10-19T21:16:06.214Z,1019.28
2022-10-19T21:45:25.500Z,1019.13
2022-10-19T22:13:17.615Z,1018.88
2022-10-19T22:42:17.095Z,1018.67
2022-10-19T23:10:34.809Z,1018.65
2022-10-19T23:39:21.064Z,1018.4
